createdAt,value
2022-12-20T00:02:10.432Z,0.05
2022-12-20T00:04:40.944Z,0.07
2022-12-20T00:07:10.879Z,0.08
2022-12-20T00:09:39.954Z,0.09
2022-12-20T00:12:08.945Z,0.10
2022-12-20T00:14:37.954Z,0.11
2022-12-20T00:17:07.452Z,0.12
2022-12-20T00:19:39.371Z,0.13
2022-12-20T00:22:08.400Z,0.15
2022-12-20T00:24:38.679Z,0.18
2022-12-20T00:27:07.747Z,0.19
2022-12-20T00:29:37.663Z,0.20
2022-12-20T00:32:06.895Z,0.22
2022-12-20T00:34:36.135Z,0.23
2022-12-20T00:37:05.337Z,0.26
2022-12-20T00:39:34.324Z,0.30
2022-12-20T00:42:03.247Z,0.32
2022-12-20T00:45:47.612Z,0.34
2022-12-20T00:48:18.275Z,0.36
2022-12-20T00:50:47.877Z,0.36
2022-12-20T00:53:21.148Z,0.37
2022-12-20T00:55:56.712Z,0.39
2022-12-20T00:58:27.458Z,0.40
2022-12-20T01:00:57.320Z,0.42
2022-12-20T01:03:27.593Z,0.44
2022-12-20T01:06:02.400Z,0.45
2022-12-20T01:08:33.104Z,0.47
2022-12-20T01:11:08.324Z,0.49
2022-12-20T01:13:40.165Z,0.51
2022-12-20T01:16:21.102Z,0.53
2022-12-20T01:18:51.965Z,0.56
2022-12-20T01:21:23.548Z,0.58
2022-12-20T01:23:52.750Z,0.60
2022-12-20T01:26:25.450Z,0.60
2022-12-20T01:28:57.944Z,0.62
2022-12-20T01:31:29.376Z,0.63
2022-12-20T01:34:01.266Z,0.65
2022-12-20T01:36:35.778Z,0.65
2022-12-20T01:39:09.354Z,0.68
2022-12-20T01:41:40.039Z,0.69
2022-12-20T01:44:35.488Z,0.70
2022-12-20T01:47:04.949Z,0.73
2022-12-20T01:49:43.639Z,0.76
2022-12-20T01:52:21.232Z,0.79
2022-12-20T01:55:11.307Z,0.82
2022-12-20T01:57:52.133Z,0.85
2022-12-20T02:00:21.788Z,0.87
2022-12-20T02:02:51.330Z,0.90
2022-12-20T02:05:24.175Z,0.91
2022-12-20T02:07:57.018Z,0.93
2022-12-20T02:10:50.899Z,0.93
2022-12-20T02:14:02.906Z,0.93
2022-12-20T02:16:39.175Z,0.93
2022-12-20T02:19:37.709Z,0.93
2022-12-20T02:22:28.587Z,0.93
2022-12-20T02:25:38.957Z,0.92
2022-12-20T02:28:37.113Z,0.92
2022-12-20T02:31:12.364Z,0.91
2022-12-20T02:33:50.993Z,0.92
2022-12-20T02:36:20.207Z,0.94
2022-12-20T02:38:51.655Z,0.99
2022-12-20T02:41:32.948Z,1.03
2022-12-20T02:44:50.454Z,1.09
2022-12-20T02:47:25.712Z,1.13
2022-12-20T02:49:59.413Z,1.13
2022-12-20T02:52:31.581Z,1.13
2022-12-20T02:55:01.803Z,1.14
2022-12-20T02:57:46.176Z,1.13
2022-12-20T03:00:19.900Z,1.12
2022-12-20T03:03:10.495Z,1.13
2022-12-20T03:05:47.536Z,1.14
2022-12-20T03:08:19.811Z,1.15
2022-12-20T03:10:49.213Z,1.17
2022-12-20T03:13:20.786Z,1.19
2022-12-20T03:15:54.095Z,1.22
2022-12-20T03:18:23.293Z,1.25
2022-12-20T03:20:55.203Z,1.30
2022-12-20T03:23:25.698Z,1.33
2022-12-20T03:25:54.973Z,1.32
2022-12-20T03:28:46.677Z,1.30
2022-12-20T03:31:22.405Z,1.29
2022-12-20T03:33:54.040Z,1.31
2022-12-20T03:36:24.547Z,1.31
2022-12-20T03:38:58.986Z,1.32
2022-12-20T03:41:29.994Z,1.30
2022-12-20T03:48:32.680Z,1.27
2022-12-20T03:51:04.377Z,1.26
2022-12-20T03:53:34.104Z,1.26
2022-12-20T03:56:05.680Z,1.26
2022-12-20T03:58:35.900Z,1.26
2022-12-20T04:01:19.656Z,1.25
2022-12-20T04:03:49.362Z,1.24
2022-12-20T04:06:21.415Z,1.26
2022-12-20T04:08:50.875Z,1.30
2022-12-20T04:11:25.885Z,1.33
2022-12-20T04:14:04.913Z,1.35
2022-12-20T04:16:36.121Z,1.36
2022-12-20T04:19:06.488Z,1.36
2022-12-20T04:21:43.241Z,1.35
2022-12-20T04:24:13.549Z,1.35
2022-12-20T04:26:50.042Z,1.33
2022-12-20T04:29:19.190Z,1.32
2022-12-20T04:31:48.988Z,1.32
2022-12-20T04:34:18.212Z,1.34
2022-12-20T04:36:47.195Z,1.35
2022-12-20T04:39:23.692Z,1.37
2022-12-20T04:42:10.222Z,1.37
2022-12-20T04:45:54.787Z,1.36
2022-12-20T04:48:56.378Z,1.36
2022-12-20T04:51:22.250Z,1.36
2022-12-20T04:53:55.585Z,1.35
2022-12-20T04:56:35.706Z,1.33
2022-12-20T04:59:11.937Z,1.32
2022-12-20T05:01:42.721Z,1.34
2022-12-20T05:04:16.893Z,1.35
2022-12-20T05:06:46.879Z,1.36
2022-12-20T05:09:16.279Z,1.38
2022-12-20T05:11:47.803Z,1.38
2022-12-20T05:14:16.958Z,1.39
2022-12-20T05:16:46.109Z,1.40
2022-12-20T05:19:17.145Z,1.44
2022-12-20T05:22:06.363Z,1.46
2022-12-20T05:24:56.585Z,1.49
2022-12-20T05:27:35.245Z,1.51
2022-12-20T05:30:11.800Z,1.51
2022-12-20T05:32:46.027Z,1.53
2022-12-20T05:35:15.361Z,1.55
2022-12-20T05:37:45.837Z,1.57
2022-12-20T05:40:19.667Z,1.58
2022-12-20T05:43:15.961Z,1.61
2022-12-20T05:45:51.627Z,1.64
2022-12-20T05:48:25.885Z,1.64
2022-12-20T05:50:55.387Z,1.64
2022-12-20T05:53:30.832Z,1.64
2022-12-20T05:56:04.199Z,1.64
2022-12-20T05:58:37.323Z,1.65
2022-12-20T06:01:10.285Z,1.65
2022-12-20T06:03:41.311Z,1.65
2022-12-20T06:06:18.742Z,1.66
2022-12-20T06:08:50.701Z,1.67
2022-12-20T06:11:34.544Z,1.69
2022-12-20T06:14:11.051Z,1.70
2022-12-20T06:16:47.209Z,1.71
2022-12-20T06:19:21.819Z,1.72
2022-12-20T06:21:55.614Z,1.72
2022-12-20T06:24:36.109Z,1.71
2022-12-20T06:27:07.416Z,1.73
2022-12-20T06:29:38.275Z,1.74
2022-12-20T06:32:11.986Z,1.74
2022-12-20T06:34:43.509Z,1.73
2022-12-20T06:37:16.308Z,1.74
2022-12-20T06:39:47.206Z,1.74
2022-12-20T07:14:02.139Z,1.75
2022-12-20T07:16:32.627Z,1.73
2022-12-20T07:19:02.900Z,1.74
2022-12-20T07:21:34.440Z,1.74
2022-12-20T07:24:05.045Z,1.74
2022-12-20T07:26:34.109Z,1.73
2022-12-20T07:29:11.869Z,1.74
2022-12-20T07:31:44.626Z,1.75
2022-12-20T07:34:14.303Z,1.76
2022-12-20T07:36:45.168Z,1.76
2022-12-20T07:39:14.578Z,1.78
2022-12-20T07:41:45.411Z,1.80
2022-12-20T07:48:54.633Z,1.84
2022-12-20T07:51:53.507Z,1.84
2022-12-20T07:54:34.132Z,1.85
2022-12-20T07:57:14.736Z,1.87
2022-12-20T07:59:51.624Z,1.90
2022-12-20T08:02:34.979Z,1.93
2022-12-20T08:05:14.584Z,1.97
2022-12-20T08:07:47.221Z,2.00
2022-12-20T08:10:20.326Z,2.03
2022-12-20T08:12:51.900Z,2.04
2022-12-20T08:15:23.442Z,2.04
2022-12-20T08:17:53.991Z,2.06
2022-12-20T08:20:23.626Z,2.07
2022-12-20T08:22:56.796Z,2.09
2022-12-20T08:25:34.547Z,2.12
2022-12-20T08:28:10.407Z,2.14
2022-12-20T08:30:40.911Z,2.16
2022-12-20T08:33:10.417Z,2.17
2022-12-20T08:35:39.950Z,2.18
2022-12-20T08:38:09.409Z,2.20
2022-12-20T08:40:39.972Z,2.21
2022-12-20T08:47:30.579Z,2.24
2022-12-20T08:49:59.830Z,2.24
2022-12-20T08:52:30.092Z,2.22
2022-12-20T08:55:01.487Z,2.20
2022-12-20T08:57:31.280Z,2.19
2022-12-20T09:00:00.378Z,2.18
2022-12-20T09:02:30.104Z,2.19
2022-12-20T09:04:59.514Z,2.19
2022-12-20T09:07:29.291Z,2.21
2022-12-20T09:09:58.497Z,2.23
2022-12-20T09:12:27.753Z,2.25
2022-12-20T09:14:56.974Z,2.27
2022-12-20T09:17:26.295Z,2.29
2022-12-20T09:19:55.646Z,2.30
2022-12-20T09:22:24.828Z,2.31
2022-12-20T09:24:53.999Z,2.31
2022-12-20T09:27:23.470Z,2.32
2022-12-20T09:29:52.594Z,2.35
2022-12-20T09:32:21.620Z,2.36
2022-12-20T09:34:50.609Z,2.39
2022-12-20T09:37:44.987Z,2.43
2022-12-20T09:40:22.635Z,2.51
2022-12-20T09:47:38.590Z,2.71
2022-12-20T09:50:08.905Z,2.74
2022-12-20T09:52:52.739Z,2.77
2022-12-20T09:55:46.270Z,2.81
2022-12-20T09:58:36.853Z,2.84
2022-12-20T10:01:27.757Z,2.85
2022-12-20T10:04:04.035Z,2.86
2022-12-20T10:06:53.763Z,2.85
2022-12-20T10:10:33.389Z,2.89
2022-12-20T10:14:01.199Z,3.05
2022-12-20T10:16:45.809Z,3.17
2022-12-20T10:19:36.907Z,3.25
2022-12-20T10:22:13.729Z,3.30
2022-12-20T10:24:53.419Z,3.33
2022-12-20T10:27:39.220Z,3.33
2022-12-20T10:30:22.144Z,3.31
2022-12-20T10:32:58.909Z,3.30
2022-12-20T10:35:29.474Z,3.31
2022-12-20T10:38:09.194Z,3.35
2022-12-20T10:41:22.233Z,3.45
2022-12-20T10:48:30.303Z,3.34
2022-12-20T10:51:24.293Z,3.31
2022-12-20T10:53:54.121Z,3.23
2022-12-20T10:57:24.192Z,3.16
2022-12-20T11:00:02.965Z,3.12
2022-12-20T11:02:42.310Z,3.11
2022-12-20T11:05:32.735Z,3.12
2022-12-20T11:08:37.688Z,3.12
2022-12-20T11:11:26.184Z,3.15
2022-12-20T11:14:15.021Z,3.18
2022-12-20T11:16:47.649Z,3.22
2022-12-20T11:19:18.684Z,3.27
2022-12-20T11:22:02.859Z,3.32
2022-12-20T11:24:58.252Z,3.33
2022-12-20T11:27:51.309Z,3.31
2022-12-20T11:30:49.825Z,3.29
2022-12-20T11:33:47.601Z,3.27
2022-12-20T11:36:43.295Z,3.25
2022-12-20T11:39:45.475Z,3.23
2022-12-20T11:42:30.261Z,3.26
2022-12-20T11:45:24.168Z,3.31
2022-12-20T11:48:30.390Z,3.37
2022-12-20T11:51:27.266Z,3.45
2022-12-20T11:54:13.127Z,3.55
2022-12-20T11:56:49.544Z,3.63
2022-12-20T11:59:43.851Z,3.65
2022-12-20T12:02:41.563Z,3.64
2022-12-20T12:05:18.224Z,3.61
2022-12-20T12:07:58.205Z,3.58
2022-12-20T12:10:37.270Z,3.57
2022-12-20T12:13:25.554Z,3.55
2022-12-20T12:16:02.280Z,3.58
2022-12-20T12:18:35.646Z,3.60
2022-12-20T12:21:26.327Z,3.63
2022-12-20T12:24:16.271Z,3.66
2022-12-20T12:26:45.985Z,3.67
2022-12-20T12:29:18.991Z,3.65
2022-12-20T12:32:05.265Z,3.61
2022-12-20T12:35:09.416Z,3.56
2022-12-20T12:37:56.201Z,3.51
2022-12-20T12:41:06.983Z,3.47
2022-12-20T12:48:16.363Z,3.44
2022-12-20T12:50:49.903Z,3.43
2022-12-20T12:53:31.256Z,3.43
2022-12-20T12:56:45.151Z,3.42
2022-12-20T12:59:33.639Z,3.39
2022-12-20T13:02:14.709Z,3.35
2022-12-20T13:05:26.288Z,3.32
2022-12-20T13:08:18.180Z,3.28
2022-12-20T13:10:57.135Z,3.25
2022-12-20T13:13:27.999Z,3.24
2022-12-20T13:16:09.962Z,3.22
2022-12-20T13:18:55.821Z,3.21
2022-12-20T13:21:38.470Z,3.21
2022-12-20T13:24:38.554Z,3.21
2022-12-20T13:27:30.044Z,3.19
2022-12-20T13:30:22.479Z,3.18
2022-12-20T13:32:51.596Z,3.17
2022-12-20T13:35:26.563Z,3.16
2022-12-20T13:38:02.581Z,3.16
2022-12-20T13:40:48.444Z,3.14
2022-12-20T13:47:43.143Z,3.11
2022-12-20T13:50:26.940Z,3.09
2022-12-20T13:52:58.008Z,3.08
2022-12-20T13:55:40.147Z,3.05
2022-12-20T13:58:18.728Z,3.01
2022-12-20T14:00:50.823Z,2.97
2022-12-20T14:03:27.172Z,2.95
2022-12-20T14:06:04.528Z,2.93
2022-12-20T14:08:43.129Z,2.90
2022-12-20T14:11:16.601Z,2.89
2022-12-20T14:13:58.456Z,2.87
2022-12-20T14:16:30.039Z,2.85
2022-12-20T14:19:07.420Z,2.83
2022-12-20T14:21:44.574Z,2.80
2022-12-20T14:24:18.573Z,2.77
2022-12-20T14:26:51.875Z,2.75
2022-12-20T14:29:32.117Z,2.72
2022-12-20T14:32:01.231Z,2.70
2022-12-20T14:34:38.080Z,2.69
2022-12-20T14:37:26.333Z,2.67
2022-12-20T14:40:09.674Z,2.66
2022-12-20T14:42:41.501Z,2.64
2022-12-20T14:45:11.967Z,2.62
2022-12-20T14:48:17.064Z,2.60
2022-12-20T14:50:54.411Z,2.57
2022-12-20T14:53:30.571Z,2.56
2022-12-20T14:56:02.437Z,2.55
2022-12-20T14:58:34.254Z,2.53
2022-12-20T15:01:21.841Z,2.51
2022-12-20T15:03:59.960Z,2.52
2022-12-20T15:06:34.263Z,2.52
2022-12-20T15:09:05.679Z,2.52
2022-12-20T15:11:37.412Z,2.52
2022-12-20T15:14:37.587Z,2.52
2022-12-20T15:17:16.203Z,2.50
2022-12-20T15:19:45.856Z,2.48
2022-12-20T15:22:20.661Z,2.48
2022-12-20T15:24:51.922Z,2.48
2022-12-20T15:27:21.631Z,2.47
2022-12-20T15:29:54.898Z,2.47
2022-12-20T15:32:30.113Z,2.46
2022-12-20T15:34:59.747Z,2.46
2022-12-20T15:37:29.333Z,2.46
2022-12-20T15:40:01.722Z,2.46
2022-12-20T15:42:30.946Z,2.44
2022-12-20T15:49:30.749Z,2.35
2022-12-20T15:52:02.662Z,2.32
2022-12-20T15:54:37.767Z,2.30
2022-12-20T15:57:12.384Z,2.28
2022-12-20T16:00:01.538Z,2.28
2022-12-20T16:02:40.938Z,2.27
2022-12-20T16:05:14.207Z,2.28
2022-12-20T16:07:44.163Z,2.29
2022-12-20T16:10:16.122Z,2.29
2022-12-20T16:12:47.626Z,2.29
2022-12-20T16:15:23.597Z,2.29
2022-12-20T16:17:54.612Z,2.29
2022-12-20T16:20:27.950Z,2.30
2022-12-20T16:22:57.447Z,2.31
2022-12-20T16:25:37.302Z,2.32
2022-12-20T16:28:09.054Z,2.35
2022-12-20T16:30:38.157Z,2.35
2022-12-20T16:33:08.848Z,2.36
2022-12-20T16:35:38.514Z,2.36
2022-12-20T16:38:10.704Z,2.35
2022-12-20T16:40:41.119Z,2.33
2022-12-20T16:47:43.352Z,2.25
2022-12-20T16:50:13.156Z,2.23
2022-12-20T16:52:44.236Z,2.22
2022-12-20T16:55:19.307Z,2.22
2022-12-20T16:57:49.608Z,2.22
2022-12-20T17:00:25.597Z,2.24
2022-12-20T17:02:54.905Z,2.26
2022-12-20T17:05:30.437Z,2.29
2022-12-20T17:08:03.199Z,2.32
2022-12-20T17:10:34.488Z,2.34
2022-12-20T17:13:05.012Z,2.36
2022-12-20T17:15:34.508Z,2.39
2022-12-20T17:18:06.932Z,2.41
2022-12-20T17:20:37.071Z,2.42
2022-12-20T17:23:12.307Z,2.43
2022-12-20T17:25:48.744Z,2.43
2022-12-20T17:28:21.178Z,2.44
2022-12-20T17:30:50.920Z,2.44
2022-12-20T17:33:21.869Z,2.45
2022-12-20T17:58:54.132Z,2.44
2022-12-20T18:01:35.869Z,2.42
2022-12-20T18:04:09.713Z,2.42
2022-12-20T18:06:43.714Z,2.46
2022-12-20T18:09:16.168Z,2.48
2022-12-20T18:11:47.173Z,2.49
2022-12-20T18:14:18.013Z,2.50
2022-12-20T18:16:48.715Z,2.50
2022-12-20T18:19:20.944Z,2.52
2022-12-20T18:21:51.332Z,2.56
2022-12-20T18:24:21.862Z,2.59
2022-12-20T18:26:52.371Z,2.62
2022-12-20T18:29:22.594Z,2.65
2022-12-20T18:31:51.703Z,2.66
2022-12-20T18:34:22.893Z,2.68
2022-12-20T18:36:54.145Z,2.69
2022-12-20T18:39:24.538Z,2.69
2022-12-20T18:41:56.095Z,2.70
2022-12-20T18:44:25.735Z,2.70
2022-12-20T18:46:57.718Z,2.71
2022-12-20T18:49:27.988Z,2.73
2022-12-20T18:51:59.997Z,2.73
2022-12-20T18:54:30.738Z,2.73
2022-12-20T18:57:00.668Z,2.73
2022-12-20T18:59:33.101Z,2.73
2022-12-20T19:02:04.624Z,2.72
2022-12-20T19:04:35.113Z,2.73
2022-12-20T19:07:05.396Z,2.75
2022-12-20T19:09:36.352Z,2.76
2022-12-20T19:12:06.849Z,2.76
2022-12-20T19:14:38.618Z,2.76
2022-12-20T19:17:08.513Z,2.77
2022-12-20T19:19:39.997Z,2.78
2022-12-20T19:22:10.618Z,2.78
2022-12-20T19:24:41.439Z,2.79
2022-12-20T19:27:13.599Z,2.80
2022-12-20T19:29:43.405Z,2.82
2022-12-20T19:32:14.918Z,2.85
2022-12-20T19:34:45.038Z,2.87
2022-12-20T19:37:17.078Z,2.88
2022-12-20T19:39:48.494Z,2.88
2022-12-20T19:42:25.132Z,2.88
2022-12-20T19:45:02.585Z,2.88
2022-12-20T19:47:38.347Z,2.88
2022-12-20T19:50:09.627Z,2.87
2022-12-20T19:52:41.002Z,2.87
2022-12-20T19:55:11.053Z,2.87
2022-12-20T19:57:42.076Z,2.87
2022-12-20T20:00:11.942Z,2.87
2022-12-20T20:02:44.242Z,2.87
2022-12-20T20:05:15.738Z,2.87
2022-12-20T20:07:45.385Z,2.87
2022-12-20T20:10:14.558Z,2.85
2022-12-20T20:12:45.575Z,2.85
2022-12-20T20:15:14.710Z,2.86
2022-12-20T20:17:46.012Z,2.86
2022-12-20T20:20:16.986Z,2.85
2022-12-20T20:22:48.541Z,2.86
2022-12-20T20:25:19.295Z,2.87
2022-12-20T20:27:49.512Z,2.87
2022-12-20T20:30:21.009Z,2.86
2022-12-20T20:32:51.457Z,2.86
2022-12-20T20:35:23.944Z,2.86
2022-12-20T20:37:55.759Z,2.85
2022-12-20T20:40:28.450Z,2.83
2022-12-20T20:43:00.131Z,2.82
2022-12-20T20:45:31.018Z,2.81
2022-12-20T20:48:05.689Z,2.80
2022-12-20T20:50:36.982Z,2.78
2022-12-20T20:53:07.595Z,2.77
2022-12-20T20:55:39.904Z,2.76
2022-12-20T20:58:09.106Z,2.76
2022-12-20T21:00:40.595Z,2.75
2022-12-20T21:03:12.511Z,2.75
2022-12-20T21:08:35.385Z,2.74
2022-12-20T21:11:06.623Z,2.73
2022-12-20T21:13:36.636Z,2.72
2022-12-20T21:16:10.197Z,2.73
2022-12-20T21:18:39.695Z,2.73
2022-12-20T21:21:11.430Z,2.73
2022-12-20T21:23:45.612Z,2.73
2022-12-20T21:26:17.340Z,2.73
2022-12-20T21:28:47.866Z,2.73
2022-12-20T21:31:19.764Z,2.72
2022-12-20T21:33:49.702Z,2.73
2022-12-20T21:36:20.325Z,2.72
2022-12-20T21:38:51.874Z,2.72
2022-12-20T21:41:24.915Z,2.71
2022-12-20T21:44:22.904Z,2.71
2022-12-20T21:46:53.485Z,2.70
2022-12-20T21:49:22.937Z,2.69
2022-12-20T21:51:56.761Z,2.67
2022-12-20T21:54:26.029Z,2.67
2022-12-20T21:56:55.011Z,2.67
2022-12-20T21:59:24.518Z,2.65
2022-12-20T22:01:56.189Z,2.63
2022-12-20T22:04:26.146Z,2.61
2022-12-20T22:06:55.313Z,2.58
2022-12-20T22:09:25.201Z,2.56
2022-12-20T22:11:55.557Z,2.55
2022-12-20T22:14:26.078Z,2.53
2022-12-20T22:16:56.274Z,2.52
2022-12-20T22:19:25.460Z,2.50
2022-12-20T22:21:58.212Z,2.48
2022-12-20T22:24:29.153Z,2.47
2022-12-20T22:26:59.538Z,2.46
2022-12-20T22:29:30.702Z,2.45
2022-12-20T22:32:01.170Z,2.43
2022-12-20T22:34:30.446Z,2.44
2022-12-20T22:37:00.131Z,2.44
2022-12-20T22:39:29.219Z,2.44
2022-12-20T22:42:00.616Z,2.42
2022-12-20T22:44:29.958Z,2.41
2022-12-20T22:49:45.663Z,2.43
2022-12-20T22:52:16.041Z,2.44
2022-12-20T22:54:47.487Z,2.45
2022-12-20T22:57:17.246Z,2.46
2022-12-20T22:59:47.568Z,2.48
2022-12-20T23:02:18.395Z,2.47
2022-12-20T23:04:51.205Z,2.46
2022-12-20T23:07:21.640Z,2.47
2022-12-20T23:09:51.137Z,2.49
2022-12-20T23:12:38.929Z,2.51
2022-12-20T23:15:31.050Z,2.52
2022-12-20T23:18:00.023Z,2.53
2022-12-20T23:20:47.750Z,2.53
2022-12-20T23:23:16.711Z,2.55
2022-12-20T23:25:48.296Z,2.55
2022-12-20T23:28:17.294Z,2.56
2022-12-20T23:30:46.235Z,2.56
2022-12-20T23:33:15.573Z,2.56
2022-12-20T23:35:48.433Z,2.54
2022-12-20T23:38:17.847Z,2.52
2022-12-20T23:40:47.161Z,2.50
2022-12-20T23:43:17.423Z,2.46
2022-12-20T23:45:46.588Z,2.42
2022-12-20T23:48:17.934Z,2.39
2022-12-20T23:50:56.363Z,2.37
2022-12-20T23:53:27.575Z,2.35
2022-12-20T23:55:58.094Z,2.32
2022-12-20T23:58:28.272Z,2.32
